createdAt,value
2019-06-23T00:00:24.301Z,17.20
2019-06-23T00:02:50.549Z,17.20
2019-06-23T00:05:17.227Z,17.20
2019-06-23T00:07:45.133Z,17.20
2019-06-23T00:10:13.290Z,17.20
2019-06-23T00:12:39.608Z,17.20
2019-06-23T00:15:06.504Z,17.20
2019-06-23T00:17:32.738Z,17.20
2019-06-23T00:19:58.954Z,17.20
2019-06-23T00:22:25.267Z,17.20
2019-06-23T00:24:51.850Z,17.20
2019-06-23T00:27:18.098Z,17.20
2019-06-23T00:29:44.518Z,17.20
2019-06-23T00:32:10.764Z,17.20
2019-06-23T00:34:36.989Z,17.20
2019-06-23T00:37:03.334Z,17.10
2019-06-23T00:39:30.179Z,17.10
2019-06-23T00:41:56.464Z,17.10
2019-06-23T00:44:23.134Z,17.10
2019-06-23T00:46:50.173Z,17.10
2019-06-23T00:49:16.915Z,17.00
2019-06-23T00:51:43.261Z,17.00
2019-06-23T00:54:09.602Z,17.00
2019-06-23T00:56:35.901Z,17.00
2019-06-23T00:59:02.734Z,17.00
2019-06-23T01:01:47.892Z,17.00
2019-06-23T01:04:15.449Z,17.00
2019-06-23T01:06:42.036Z,17.00
2019-06-23T01:09:08.376Z,17.00
2019-06-23T01:11:52.615Z,17.00
2019-06-23T01:14:18.895Z,17.10
2019-06-23T01:16:46.289Z,17.10
2019-06-23T01:19:12.989Z,17.10
2019-06-23T01:21:39.379Z,17.00
2019-06-23T01:24:08.378Z,17.00
2019-06-23T01:26:34.624Z,17.00
2019-06-23T01:29:00.889Z,17.10
2019-06-23T01:31:27.168Z,17.00
2019-06-23T01:33:53.410Z,17.00
2019-06-23T01:36:20.165Z,17.10
2019-06-23T01:38:50.722Z,17.10
2019-06-23T01:41:19.506Z,17.10
2019-06-23T01:43:46.059Z,17.10
2019-06-23T01:46:12.348Z,17.10
2019-06-23T01:48:38.660Z,17.10
2019-06-23T01:51:05.509Z,17.10
2019-06-23T01:53:32.321Z,17.10
2019-06-23T01:56:02.474Z,17.10
2019-06-23T01:58:29.220Z,17.10
2019-06-23T02:00:55.739Z,17.10
2019-06-23T02:04:23.010Z,17.10
2019-06-23T02:06:54.884Z,17.00
2019-06-23T02:09:22.779Z,17.00
2019-06-23T02:11:49.037Z,17.00
2019-06-23T02:14:15.421Z,17.00
2019-06-23T02:16:41.637Z,17.00
2019-06-23T02:19:08.913Z,17.00
2019-06-23T02:21:37.834Z,17.10
2019-06-23T02:24:04.221Z,17.10
2019-06-23T02:26:31.151Z,17.10
2019-06-23T02:28:57.428Z,17.10
2019-06-23T02:31:23.823Z,17.10
2019-06-23T02:33:50.786Z,17.10
2019-06-23T02:36:17.032Z,17.10
2019-06-23T02:38:43.768Z,17.10
2019-06-23T02:41:10.126Z,17.10
2019-06-23T02:43:36.371Z,17.10
2019-06-23T02:46:04.976Z,17.10
2019-06-23T02:48:48.922Z,17.10
2019-06-23T02:51:34.308Z,17.00
2019-06-23T02:54:05.447Z,17.10
2019-06-23T02:56:34.035Z,17.00
2019-06-23T02:59:02.329Z,17.00
2019-06-23T03:01:28.669Z,17.00
2019-06-23T03:03:54.888Z,17.00
2019-06-23T03:06:21.224Z,17.00
2019-06-23T03:08:47.839Z,17.00
2019-06-23T03:11:14.071Z,17.00
2019-06-23T03:13:40.607Z,17.00
2019-06-23T03:16:06.959Z,17.00
2019-06-23T03:18:33.578Z,17.00
2019-06-23T03:21:00.216Z,17.00
2019-06-23T03:23:30.215Z,17.00
2019-06-23T03:26:02.325Z,17.00
2019-06-23T03:28:29.740Z,17.00
2019-06-23T03:30:56.901Z,17.00
2019-06-23T03:33:34.422Z,17.00
2019-06-23T03:36:04.195Z,17.00
2019-06-23T03:38:32.533Z,17.00
2019-06-23T03:41:01.551Z,17.00
2019-06-23T03:43:28.696Z,17.00
2019-06-23T03:45:55.483Z,17.00
2019-06-23T03:48:24.007Z,17.00
2019-06-23T03:50:51.990Z,17.10
2019-06-23T03:53:18.987Z,17.10
2019-06-23T03:55:46.188Z,17.20
2019-06-23T03:58:16.548Z,17.20
2019-06-23T04:00:43.511Z,17.20
2019-06-23T04:03:10.949Z,17.30
2019-06-23T04:05:50.808Z,17.30
2019-06-23T04:08:06.772Z,17.30
2019-06-23T04:10:33.597Z,17.30
2019-06-23T04:13:00.876Z,17.30
2019-06-23T04:15:27.954Z,17.30
2019-06-23T04:17:55.268Z,17.30
2019-06-23T04:20:44.977Z,17.30
2019-06-23T04:23:12.116Z,17.30
2019-06-23T04:25:39.566Z,17.40
2019-06-23T04:28:06.530Z,17.40
2019-06-23T04:30:33.942Z,17.50
2019-06-23T04:33:00.906Z,17.50
2019-06-23T04:35:27.627Z,17.60
2019-06-23T04:37:54.329Z,17.60
2019-06-23T04:40:21.872Z,17.70
2019-06-23T04:42:51.309Z,17.60
2019-06-23T04:45:18.157Z,17.60
2019-06-23T04:47:45.467Z,17.70
2019-06-23T04:50:12.140Z,17.70
2019-06-23T04:52:39.049Z,17.70
2019-06-23T04:55:06.087Z,17.80
2019-06-23T04:57:32.929Z,17.80
2019-06-23T04:59:59.717Z,17.80
2019-06-23T05:02:26.351Z,17.90
2019-06-23T05:04:53.286Z,17.90
2019-06-23T05:07:20.945Z,17.90
2019-06-23T05:09:47.806Z,18.00
2019-06-23T05:12:14.605Z,18.10
2019-06-23T05:14:41.336Z,18.10
2019-06-23T05:17:08.197Z,18.10
2019-06-23T05:19:35.489Z,18.20
2019-06-23T05:22:02.640Z,18.10
2019-06-23T05:24:29.762Z,18.10
2019-06-23T05:26:56.701Z,18.10
2019-06-23T05:29:23.963Z,18.10
2019-06-23T05:31:50.703Z,18.20
2019-06-23T05:34:17.746Z,18.20
2019-06-23T05:36:44.692Z,18.20
2019-06-23T05:39:11.299Z,18.20
2019-06-23T05:41:38.522Z,18.20
2019-06-23T05:44:05.497Z,18.20
2019-06-23T05:46:32.633Z,18.20
2019-06-23T05:49:01.248Z,18.10
2019-06-23T05:51:28.150Z,18.10
2019-06-23T05:53:54.834Z,18.10
2019-06-23T05:56:21.710Z,18.10
2019-06-23T05:58:48.873Z,18.10
2019-06-23T06:01:15.928Z,18.10
2019-06-23T06:03:43.420Z,18.10
2019-06-23T06:06:12.114Z,18.10
2019-06-23T06:08:38.671Z,18.10
2019-06-23T06:11:06.035Z,18.10
2019-06-23T06:13:32.998Z,18.10
2019-06-23T06:16:01.083Z,18.10
2019-06-23T06:18:27.887Z,18.10
2019-06-23T06:20:56.192Z,18.00
2019-06-23T06:23:24.681Z,18.00
2019-06-23T06:25:51.527Z,18.00
2019-06-23T06:28:20.675Z,18.10
2019-06-23T06:30:48.880Z,18.40
2019-06-23T06:33:15.697Z,18.60
2019-06-23T06:35:42.584Z,18.90
2019-06-23T06:38:09.483Z,19.00
2019-06-23T06:40:36.593Z,19.20
2019-06-23T06:43:03.470Z,19.10
2019-06-23T06:45:30.346Z,19.20
2019-06-23T06:47:57.031Z,19.30
2019-06-23T06:50:23.875Z,19.40
2019-06-23T06:52:51.154Z,19.40
2019-06-23T06:55:18.227Z,19.50
2019-06-23T06:57:45.183Z,19.50
2019-06-23T07:00:12.985Z,19.60
2019-06-23T07:02:39.986Z,19.70
2019-06-23T07:05:11.016Z,19.70
2019-06-23T07:07:37.846Z,19.70
2019-06-23T07:10:05.477Z,19.60
2019-06-23T07:12:32.274Z,19.60
2019-06-23T07:15:14.413Z,19.70
2019-06-23T07:17:41.631Z,19.70
2019-06-23T07:20:10.371Z,19.80
2019-06-23T07:22:37.232Z,19.80
2019-06-23T07:25:16.645Z,19.80
2019-06-23T07:27:43.901Z,19.80
2019-06-23T07:30:36.191Z,19.80
2019-06-23T07:33:05.183Z,19.90
2019-06-23T07:35:37.522Z,19.90
2019-06-23T07:38:07.852Z,20.00
2019-06-23T07:40:34.932Z,20.20
2019-06-23T07:43:01.830Z,20.40
2019-06-23T07:45:28.817Z,20.60
2019-06-23T07:47:55.774Z,20.90
2019-06-23T07:50:23.166Z,21.00
2019-06-23T07:52:50.107Z,21.30
2019-06-23T07:55:17.147Z,21.70
2019-06-23T07:57:43.937Z,22.00
2019-06-23T08:00:11.263Z,22.30
2019-06-23T08:02:38.394Z,22.70
2019-06-23T08:05:05.867Z,23.10
2019-06-23T08:07:33.436Z,23.40
2019-06-23T08:10:00.571Z,23.50
2019-06-23T08:12:27.558Z,23.40
2019-06-23T08:14:54.456Z,23.20
2019-06-23T08:17:24.809Z,23.20
2019-06-23T08:19:51.763Z,23.00
2019-06-23T08:22:20.562Z,23.00
2019-06-23T08:24:47.454Z,23.00
2019-06-23T08:27:19.465Z,23.00
2019-06-23T08:29:46.369Z,22.90
2019-06-23T08:32:13.718Z,22.80
2019-06-23T08:34:43.900Z,22.70
2019-06-23T08:37:12.439Z,22.70
2019-06-23T08:39:43.070Z,22.70
2019-06-23T08:42:10.040Z,22.70
2019-06-23T08:44:36.816Z,22.60
2019-06-23T08:47:03.895Z,22.40
2019-06-23T08:49:30.995Z,22.30
2019-06-23T08:52:02.015Z,22.20
2019-06-23T08:55:01.328Z,22.10
2019-06-23T08:57:29.204Z,22.10
2019-06-23T08:59:55.836Z,22.10
2019-06-23T09:02:22.388Z,22.10
2019-06-23T09:04:49.040Z,22.00
2019-06-23T09:07:16.423Z,22.00
2019-06-23T09:09:42.786Z,22.00
2019-06-23T09:12:12.186Z,22.00
2019-06-23T09:14:39.021Z,22.10
2019-06-23T09:17:05.538Z,22.10
2019-06-23T09:19:32.249Z,22.20
2019-06-23T09:21:59.261Z,22.20
2019-06-23T09:24:25.929Z,22.20
2019-06-23T09:26:52.659Z,22.20
2019-06-23T09:29:19.368Z,22.30
2019-06-23T09:31:46.253Z,22.30
2019-06-23T09:34:12.722Z,22.30
2019-06-23T09:36:39.423Z,22.30
2019-06-23T09:39:06.471Z,22.30
2019-06-23T09:41:32.944Z,22.30
2019-06-23T09:43:59.704Z,22.40
2019-06-23T09:46:26.156Z,22.50
2019-06-23T09:48:52.636Z,22.60
2019-06-23T09:51:19.457Z,22.90
2019-06-23T09:53:46.175Z,23.40
2019-06-23T09:56:13.307Z,23.80
2019-06-23T09:58:40.220Z,23.90
2019-06-23T10:01:07.468Z,23.90
2019-06-23T10:03:34.591Z,23.90
2019-06-23T10:06:02.299Z,23.70
2019-06-23T10:08:29.223Z,23.60
2019-06-23T10:10:56.170Z,23.40
2019-06-23T10:13:23.265Z,23.20
2019-06-23T10:15:50.469Z,23.20
2019-06-23T10:18:17.257Z,23.30
2019-06-23T10:20:44.126Z,23.40
2019-06-23T10:23:11.006Z,23.30
2019-06-23T10:25:39.430Z,23.30
2019-06-23T10:28:06.411Z,23.10
2019-06-23T10:30:33.479Z,23.00
2019-06-23T10:33:02.491Z,22.80
2019-06-23T10:35:29.664Z,22.60
2019-06-23T10:37:57.193Z,22.50
2019-06-23T10:40:24.241Z,22.40
2019-06-23T10:42:53.301Z,22.30
2019-06-23T10:45:20.934Z,22.40
2019-06-23T10:47:48.136Z,22.40
2019-06-23T10:50:15.438Z,22.50
2019-06-23T10:52:42.521Z,22.70
2019-06-23T10:55:10.074Z,22.90
2019-06-23T10:57:37.536Z,22.80
2019-06-23T11:00:09.040Z,22.80
2019-06-23T11:02:35.353Z,22.80
2019-06-23T11:05:04.490Z,22.80
2019-06-23T11:07:31.589Z,22.80
2019-06-23T11:09:58.066Z,22.80
2019-06-23T11:12:24.428Z,22.80
2019-06-23T11:14:50.721Z,22.70
2019-06-23T11:17:16.963Z,22.60
2019-06-23T11:19:43.420Z,22.50
2019-06-23T11:22:09.673Z,22.40
2019-06-23T11:24:35.909Z,22.40
2019-06-23T11:27:02.842Z,22.40
2019-06-23T11:29:29.249Z,22.40
2019-06-23T11:31:56.244Z,22.40
2019-06-23T11:34:22.986Z,22.40
2019-06-23T11:36:49.404Z,22.40
2019-06-23T11:39:15.648Z,22.40
2019-06-23T11:41:41.946Z,22.40
2019-06-23T11:44:08.727Z,22.40
2019-06-23T11:46:35.067Z,22.40
2019-06-23T11:49:01.363Z,22.40
2019-06-23T11:51:27.642Z,22.40
2019-06-23T11:53:53.888Z,22.30
2019-06-23T11:56:20.256Z,22.20
2019-06-23T11:58:46.965Z,22.30
2019-06-23T12:01:13.244Z,22.40
2019-06-23T12:03:39.894Z,22.50
2019-06-23T12:06:06.547Z,22.70
2019-06-23T12:08:32.895Z,22.90
2019-06-23T12:10:59.261Z,23.00
2019-06-23T12:13:25.497Z,23.20
2019-06-23T12:15:51.898Z,23.20
2019-06-23T12:18:18.210Z,23.20
2019-06-23T12:20:44.622Z,23.20
2019-06-23T12:23:10.917Z,23.30
2019-06-23T12:25:37.308Z,23.30
2019-06-23T12:28:04.096Z,23.30
2019-06-23T12:30:30.371Z,23.30
2019-06-23T12:32:56.661Z,23.30
2019-06-23T12:35:22.933Z,23.20
2019-06-23T12:37:49.191Z,23.30
2019-06-23T12:40:24.646Z,23.40
2019-06-23T12:42:44.000Z,23.50
2019-06-23T12:45:10.889Z,23.50
2019-06-23T12:47:37.153Z,23.50
2019-06-23T12:50:05.020Z,23.40
2019-06-23T12:52:31.413Z,23.40
2019-06-23T12:54:57.649Z,23.40
2019-06-23T12:57:24.044Z,23.30
2019-06-23T12:59:50.290Z,23.20
2019-06-23T13:02:16.514Z,23.10
2019-06-23T13:04:43.657Z,22.90
2019-06-23T13:07:10.096Z,22.80
2019-06-23T13:09:36.347Z,22.70
2019-06-23T13:12:03.349Z,22.60
2019-06-23T13:14:29.673Z,22.40
2019-06-23T13:16:56.218Z,22.30
2019-06-23T13:19:22.976Z,22.20
2019-06-23T13:21:49.217Z,22.10
2019-06-23T13:24:15.599Z,22.00
2019-06-23T13:26:41.859Z,21.90
2019-06-23T13:29:08.562Z,21.80
2019-06-23T13:31:34.790Z,21.80
2019-06-23T13:34:01.043Z,21.80
2019-06-23T13:36:27.784Z,21.70
2019-06-23T13:38:54.164Z,21.70
2019-06-23T13:41:20.794Z,21.60
2019-06-23T13:43:47.064Z,21.60
2019-06-23T13:46:13.315Z,21.70
2019-06-23T13:48:39.995Z,21.80
2019-06-23T13:51:06.333Z,21.80
2019-06-23T13:53:32.893Z,21.90
2019-06-23T13:55:59.308Z,21.90
2019-06-23T13:58:25.597Z,22.00
2019-06-23T14:00:52.020Z,22.00
2019-06-23T14:03:18.337Z,22.10
2019-06-23T14:05:44.569Z,22.10
2019-06-23T14:08:10.819Z,22.20
2019-06-23T14:10:37.190Z,22.20
2019-06-23T14:13:04.289Z,22.20
2019-06-23T14:15:30.536Z,22.20
2019-06-23T14:17:56.963Z,22.20
2019-06-23T14:20:23.193Z,22.10
2019-06-23T14:22:49.938Z,22.00
2019-06-23T14:25:16.448Z,22.00
2019-06-23T14:27:42.883Z,21.90
2019-06-23T14:30:12.018Z,21.90
2019-06-23T14:32:38.456Z,22.00
2019-06-23T14:35:07.145Z,22.10
2019-06-23T14:37:33.449Z,22.10
2019-06-23T14:39:59.667Z,22.10
2019-06-23T14:42:25.907Z,22.10
2019-06-23T14:44:52.239Z,22.10
2019-06-23T14:47:18.495Z,22.10
2019-06-23T14:49:44.757Z,22.10
2019-06-23T14:52:11.020Z,22.00
2019-06-23T14:54:37.281Z,22.00
2019-06-23T14:57:04.024Z,22.00
2019-06-23T14:59:30.591Z,21.90
2019-06-23T15:01:56.853Z,21.90
2019-06-23T15:04:24.034Z,21.80
2019-06-23T15:06:52.709Z,21.80
2019-06-23T15:09:18.465Z,21.80
2019-06-23T15:11:48.603Z,21.80
2019-06-23T15:14:15.065Z,21.90
2019-06-23T15:16:41.295Z,22.00
2019-06-23T15:19:08.089Z,22.10
2019-06-23T15:21:34.405Z,22.20
2019-06-23T15:24:01.247Z,22.30
2019-06-23T15:26:27.552Z,22.40
2019-06-23T15:28:54.052Z,22.60
2019-06-23T15:31:20.639Z,22.70
2019-06-23T15:33:46.878Z,22.80
2019-06-23T15:36:13.313Z,22.90
2019-06-23T15:38:39.680Z,23.00
2019-06-23T15:41:06.407Z,23.00
2019-06-23T15:43:32.879Z,23.00
2019-06-23T15:45:59.172Z,23.00
2019-06-23T15:48:25.421Z,23.00
2019-06-23T15:50:51.816Z,23.00
2019-06-23T15:53:20.083Z,23.00
2019-06-23T15:55:46.354Z,23.00
2019-06-23T15:58:12.588Z,23.00
2019-06-23T16:00:39.108Z,23.00
2019-06-23T16:03:06.151Z,22.90
2019-06-23T16:05:32.427Z,22.90
2019-06-23T16:07:58.709Z,22.80
2019-06-23T16:10:24.957Z,22.80
2019-06-23T16:12:51.208Z,22.70
2019-06-23T16:15:17.644Z,22.80
2019-06-23T16:17:43.965Z,22.80
2019-06-23T16:20:11.480Z,22.80
2019-06-23T16:22:37.736Z,22.80
2019-06-23T16:25:08.285Z,22.80
2019-06-23T16:27:36.106Z,22.80
2019-06-23T16:30:05.811Z,22.80
2019-06-23T16:32:32.053Z,22.80
2019-06-23T16:34:58.929Z,22.80
2019-06-23T16:37:25.253Z,22.80
2019-06-23T16:39:51.556Z,22.80
2019-06-23T16:42:32.010Z,22.80
2019-06-23T16:44:47.641Z,22.80
2019-06-23T16:47:13.924Z,22.80
2019-06-23T16:49:46.002Z,22.80
2019-06-23T16:52:12.883Z,22.70
2019-06-23T16:54:40.269Z,22.60
2019-06-23T16:57:06.470Z,22.70
2019-06-23T16:59:33.044Z,22.70
2019-06-23T17:02:07.765Z,22.70
2019-06-23T17:04:40.520Z,22.70
2019-06-23T17:07:06.826Z,22.70
2019-06-23T17:09:35.300Z,22.70
2019-06-23T17:12:06.660Z,22.70
2019-06-23T17:14:32.939Z,22.80
2019-06-23T17:16:59.349Z,22.80
2019-06-23T17:19:25.680Z,22.80
2019-06-23T17:21:52.035Z,22.80
2019-06-23T17:24:18.381Z,22.90
2019-06-23T17:26:44.663Z,23.00
2019-06-23T17:29:11.226Z,23.00
2019-06-23T17:31:37.538Z,23.00
2019-06-23T17:34:03.912Z,23.10
2019-06-23T17:36:30.098Z,23.10
2019-06-23T17:38:56.361Z,23.00
2019-06-23T17:41:22.549Z,23.10
2019-06-23T17:43:49.017Z,23.10
2019-06-23T17:46:15.238Z,23.10
2019-06-23T17:48:41.589Z,23.00
2019-06-23T17:51:07.801Z,23.00
2019-06-23T17:53:34.046Z,23.00
2019-06-23T17:56:00.314Z,23.00
2019-06-23T17:58:39.072Z,23.10
2019-06-23T18:00:55.368Z,23.10
2019-06-23T18:03:22.108Z,23.00
2019-06-23T18:05:48.463Z,23.00
2019-06-23T18:08:14.739Z,23.00
2019-06-23T18:10:41.082Z,23.00
2019-06-23T18:13:20.629Z,23.00
2019-06-23T18:15:35.717Z,23.00
2019-06-23T18:18:02.022Z,23.00
2019-06-23T18:20:28.236Z,22.90
2019-06-23T18:22:54.816Z,22.90
2019-06-23T18:25:21.448Z,22.80
2019-06-23T18:27:47.742Z,22.80
2019-06-23T18:30:15.139Z,22.80
2019-06-23T18:32:41.388Z,22.80
2019-06-23T18:35:08.243Z,22.80
2019-06-23T18:37:34.462Z,22.80
2019-06-23T18:40:01.085Z,22.70
2019-06-23T18:42:27.303Z,22.70
2019-06-23T18:44:53.550Z,22.70
2019-06-23T18:47:20.100Z,22.70
2019-06-23T18:49:46.310Z,22.70
2019-06-23T18:52:12.594Z,22.70
2019-06-23T18:54:38.830Z,22.60
2019-06-23T18:57:05.083Z,22.60
2019-06-23T18:59:31.309Z,22.50
2019-06-23T19:01:57.583Z,22.50
2019-06-23T19:04:23.817Z,22.40
2019-06-23T19:06:50.383Z,22.40
2019-06-23T19:09:16.965Z,22.40
2019-06-23T19:11:43.206Z,22.30
2019-06-23T19:14:09.460Z,22.30
2019-06-23T19:16:36.478Z,22.20
2019-06-23T19:19:03.031Z,22.20
2019-06-23T19:21:29.458Z,22.20
2019-06-23T19:23:55.928Z,22.10
2019-06-23T19:26:22.294Z,22.10
2019-06-23T19:28:48.891Z,22.00
2019-06-23T19:31:15.133Z,22.00
2019-06-23T19:33:41.827Z,21.90
2019-06-23T19:36:08.717Z,21.80
2019-06-23T19:38:35.194Z,21.80
2019-06-23T19:41:01.949Z,21.70
2019-06-23T19:43:29.046Z,21.70
2019-06-23T19:45:55.604Z,21.60
2019-06-23T19:48:22.475Z,21.60
2019-06-23T19:50:49.139Z,21.60
2019-06-23T19:53:16.099Z,21.60
2019-06-23T19:55:42.821Z,21.60
2019-06-23T19:58:10.034Z,21.60
2019-06-23T20:00:36.331Z,21.60
2019-06-23T20:03:03.090Z,21.70
2019-06-23T20:05:29.371Z,21.70
2019-06-23T20:07:55.636Z,21.70
2019-06-23T20:10:21.897Z,21.70
2019-06-23T20:12:48.289Z,21.70
2019-06-23T20:15:26.985Z,21.70
2019-06-23T20:17:43.279Z,21.60
2019-06-23T20:20:10.675Z,21.50
2019-06-23T20:22:36.891Z,21.50
2019-06-23T20:25:04.324Z,21.50
2019-06-23T20:27:30.568Z,21.40
2019-06-23T20:29:56.789Z,21.40
2019-06-23T20:32:23.008Z,21.40
2019-06-23T20:34:49.437Z,21.40
2019-06-23T20:37:15.666Z,21.30
2019-06-23T20:39:41.978Z,21.30
2019-06-23T20:42:08.214Z,21.20
2019-06-23T20:44:42.172Z,21.20
2019-06-23T20:47:02.776Z,21.10
2019-06-23T20:49:29.153Z,21.10
2019-06-23T20:51:55.507Z,21.10
2019-06-23T20:54:21.751Z,21.10
2019-06-23T20:56:47.998Z,21.00
2019-06-23T20:59:14.273Z,21.00
2019-06-23T21:01:40.515Z,20.90
2019-06-23T21:04:06.766Z,20.90
2019-06-23T21:06:32.991Z,20.90
2019-06-23T21:08:59.292Z,20.90
2019-06-23T21:11:25.540Z,20.80
2019-06-23T21:13:51.771Z,20.90
2019-06-23T21:16:18.081Z,20.80
2019-06-23T21:18:44.314Z,20.70
2019-06-23T21:21:10.571Z,20.60
2019-06-23T21:23:36.795Z,20.50
2019-06-23T21:26:03.176Z,20.50
2019-06-23T21:28:29.421Z,20.40
2019-06-23T21:30:55.752Z,20.40
2019-06-23T21:33:21.977Z,20.40
2019-06-23T21:35:48.213Z,20.40
2019-06-23T21:38:14.441Z,20.40
2019-06-23T21:40:41.022Z,20.30
2019-06-23T21:43:07.285Z,20.30
2019-06-23T21:45:33.508Z,20.30
2019-06-23T21:47:59.761Z,20.20
2019-06-23T21:50:26.134Z,20.10
2019-06-23T21:52:53.150Z,20.00
2019-06-23T21:55:19.378Z,20.00
2019-06-23T21:57:45.661Z,19.90
2019-06-23T22:00:23.514Z,19.90
2019-06-23T22:02:49.852Z,19.90
2019-06-23T22:05:21.810Z,19.90
2019-06-23T22:07:48.043Z,19.80
2019-06-23T22:10:14.672Z,19.90
2019-06-23T22:12:40.910Z,19.80
2019-06-23T22:15:07.573Z,19.70
2019-06-23T22:17:33.935Z,19.70
2019-06-23T22:20:00.488Z,19.70
2019-06-23T22:22:26.708Z,19.70
2019-06-23T22:24:53.243Z,19.70
2019-06-23T22:27:19.473Z,19.60
2019-06-23T22:29:45.703Z,19.60
2019-06-23T22:32:12.088Z,19.50
2019-06-23T22:34:38.371Z,19.50
2019-06-23T22:37:04.584Z,19.50
2019-06-23T22:39:30.837Z,19.40
2019-06-23T22:41:57.079Z,19.40
2019-06-23T22:44:23.306Z,19.30
2019-06-23T22:46:49.580Z,19.30
2019-06-23T22:49:15.785Z,19.20
2019-06-23T22:51:42.184Z,19.20
2019-06-23T22:54:08.427Z,19.10
2019-06-23T22:56:34.655Z,19.00
2019-06-23T22:59:00.900Z,18.90
2019-06-23T23:01:27.230Z,18.90
2019-06-23T23:03:53.476Z,18.90
2019-06-23T23:06:19.721Z,18.70
2019-06-23T23:08:46.008Z,18.70
2019-06-23T23:11:12.238Z,18.60
2019-06-23T23:13:38.476Z,18.60
2019-06-23T23:16:04.836Z,18.60
2019-06-23T23:18:31.076Z,18.40
2019-06-23T23:20:57.637Z,18.40
2019-06-23T23:23:23.883Z,18.40
2019-06-23T23:25:50.124Z,18.40
2019-06-23T23:28:16.376Z,18.40
2019-06-23T23:30:42.610Z,18.30
2019-06-23T23:33:08.871Z,18.30
2019-06-23T23:35:35.097Z,18.30
2019-06-23T23:38:01.443Z,18.20
2019-06-23T23:40:27.674Z,18.20
2019-06-23T23:42:54.024Z,18.20
2019-06-23T23:45:20.392Z,18.10
2019-06-23T23:47:46.645Z,18.10
2019-06-23T23:50:13.999Z,18.00
2019-06-23T23:52:45.095Z,18.00
2019-06-23T23:55:09.084Z,17.90
2019-06-23T23:57:35.311Z,17.90
